www.cux-wetter.de
Wetterdaten: Woche 20.07.09 - 26.07.09 (KW30)
Datum Zeit Temp. A. Feuchte A. Luftdruck Regen Wind Richtung Sonnenschein Solar Taupunkt Windchill Windben
20.07.2009 00:00 14,3 C 92 % 1010,5 hPa 0,0 l/m 8,5 km/h (2 Bft) S-SW 0,00 h 0 W/m 13,0 C 13,1 C 8,5 km/h (2 Bft)
20.07.2009 01:00 13,9 C 93 % 1009,5 hPa 0,0 l/m 10,7 km/h (2 Bft) SW 0,00 h 0 W/m 12,8 C 11,7 C 10,7 km/h (2 Bft)
20.07.2009 02:00 13,5 C 93 % 1009,5 hPa 0,0 l/m 13,2 km/h (3 Bft) SW 0,00 h 0 W/m 12,4 C 10,2 C 13,2 km/h (3 Bft)
20.07.2009 03:00 12,9 C 92 % 1008,6 hPa 0,0 l/m 10,6 km/h (2 Bft) S-SW 0,00 h 0 W/m 11,7 C 10,6 C 10,6 km/h (2 Bft)
20.07.2009 04:00 12,6 C 93 % 1008,3 hPa 0,0 l/m 11,5 km/h (2 Bft) S-SW 0,00 h 0 W/m 11,5 C 9,8 C 11,5 km/h (2 Bft)
20.07.2009 05:00 13,3 C 91 % 1007,5 hPa 0,0 l/m 16,5 km/h (3 Bft) SW 0,00 h 0 W/m 11,9 C 8,6 C 16,5 km/h (3 Bft)
20.07.2009 06:00 13,8 C 89 % 1007,5 hPa 0,0 l/m 22,6 km/h (4 Bft) W-SW 0,00 h 0 W/m 12,0 C 7,5 C 22,6 km/h (4 Bft)
20.07.2009 07:00 14,4 C 86 % 1007,5 hPa 0,0 l/m 23,6 km/h (4 Bft) W-SW 0,00 h 0 W/m 12,1 C 8,2 C 23,6 km/h (4 Bft)
20.07.2009 08:00 15,3 C 84 % 1007,5 hPa 0,0 l/m 27,5 km/h (5 Bft) W-SW 0,00 h 0 W/m 12,7 C 8,7 C 27,5 km/h (5 Bft)
20.07.2009 09:00 15,9 C 83 % 1007,5 hPa 0,0 l/m 36,0 km/h (5 Bft) W 0,00 h 0 W/m 13,0 C 8,2 C 36,0 km/h (5 Bft)
20.07.2009 10:00 16,3 C 83 % 1007,5 hPa 0,3 l/m 38,2 km/h (6 Bft) W 0,00 h 0 W/m 13,4 C 8,5 C 38,2 km/h (6 Bft)
20.07.2009 11:00 16,8 C 80 % 1007,5 hPa 0,0 l/m 35,4 km/h (5 Bft) W 0,00 h 0 W/m 13,4 C 9,5 C 35,4 km/h (5 Bft)
20.07.2009 12:00 18,1 C 75 % 1008,5 hPa 0,0 l/m 36,8 km/h (5 Bft) NW 0,00 h 0 W/m 13,5 C 11,2 C 36,8 km/h (5 Bft)
20.07.2009 13:00 19,8 C 66 % 1009,2 hPa 0,0 l/m 37,8 km/h (6 Bft) NW 0,00 h 0 W/m 13,3 C 13,7 C 37,8 km/h (6 Bft)
20.07.2009 14:00 20,1 C 64 % 1010,3 hPa 0,0 l/m 35,8 km/h (5 Bft) NW 0,00 h 0 W/m 13,0 C 14,2 C 35,8 km/h (5 Bft)
20.07.2009 15:00 20,0 C 62 % 1010,5 hPa 0,0 l/m 36,8 km/h (5 Bft) NW 0,00 h 0 W/m 12,4 C 14,0 C 36,8 km/h (5 Bft)
20.07.2009 16:00 19,6 C 63 % 1011,4 hPa 0,0 l/m 33,6 km/h (5 Bft) NW 0,00 h 0 W/m 12,3 C 13,8 C 33,6 km/h (5 Bft)
20.07.2009 17:00 19,7 C 64 % 1011,5 hPa 0,0 l/m 33,5 km/h (5 Bft) NW 0,00 h 0 W/m 12,6 C 13,9 C 33,5 km/h (5 Bft)
20.07.2009 18:00 18,9 C 67 % 1011,5 hPa 0,0 l/m 30,1 km/h (5 Bft) NW 0,00 h 0 W/m 12,6 C 13,2 C 30,1 km/h (5 Bft)
20.07.2009 19:00 18,4 C 69 % 1011,5 hPa 0,0 l/m 29,0 km/h (5 Bft) NW 0,00 h 0 W/m 12,6 C 12,7 C 29,0 km/h (5 Bft)
20.07.2009 20:00 17,6 C 72 % 1011,8 hPa 0,0 l/m 25,1 km/h (4 Bft) NW 0,00 h 0 W/m 12,4 C 12,1 C 25,1 km/h (4 Bft)
20.07.2009 21:00 17,1 C 72 % 1012,4 hPa 0,0 l/m 23,0 km/h (4 Bft) NW 0,00 h 0 W/m 12,1 C 11,9 C 23,0 km/h (4 Bft)
20.07.2009 22:00 16,7 C 73 % 1012,5 hPa 0,0 l/m 25,4 km/h (4 Bft) NW 0,00 h 0 W/m 11,8 C 10,9 C 25,4 km/h (4 Bft)
20.07.2009 23:00 16,6 C 70 % 1012,5 hPa 0,0 l/m 25,8 km/h (4 Bft) NW 0,00 h 0 W/m 11,2 C 10,7 C 25,8 km/h (4 Bft)
21.07.2009 00:00 16,6 C 72 % 1012,5 hPa 0,0 l/m 21,3 km/h (4 Bft) NW 0,00 h 0 W/m 11,5 C 11,5 C 21,3 km/h (4 Bft)
21.07.2009 01:00 15,9 C 78 % 1012,5 hPa 0,0 l/m 12,7 km/h (3 Bft) W 0,00 h 0 W/m 12,1 C 13,1 C 12,7 km/h (3 Bft)
21.07.2009 02:00 15,0 C 81 % 1012,5 hPa 0,0 l/m 9,0 km/h (2 Bft) W-SW 0,00 h 0 W/m 11,9 C 13,7 C 9,0 km/h (2 Bft)
21.07.2009 03:00 14,9 C 82 % 1012,5 hPa 0,0 l/m 7,8 km/h (2 Bft) S-SW 0,00 h 0 W/m 11,9 C 14,1 C 7,8 km/h (2 Bft)
21.07.2009 04:00 14,5 C 83 % 1011,8 hPa 0,0 l/m 7,2 km/h (2 Bft) S 0,00 h 0 W/m 11,5 C 13,6 C 7,2 km/h (2 Bft)
21.07.2009 05:00 13,3 C 88 % 1011,5 hPa 0,0 l/m 9,9 km/h (2 Bft) W-SW 0,00 h 0 W/m 11,3 C 11,4 C 9,9 km/h (2 Bft)
21.07.2009 06:00 13,3 C 89 % 1011,5 hPa 0,0 l/m 11,1 km/h (2 Bft) W 0,00 h 0 W/m 11,6 C 10,8 C 11,1 km/h (2 Bft)
21.07.2009 07:00 14,5 C 86 % 1011,5 hPa 0,0 l/m 13,9 km/h (3 Bft) W 0,00 h 0 W/m 12,2 C 11,0 C 13,9 km/h (3 Bft)
21.07.2009 08:00 16,4 C 81 % 1011,5 hPa 0,0 l/m 19,7 km/h (3 Bft) W 0,00 h 0 W/m 13,1 C 11,7 C 19,7 km/h (3 Bft)
21.07.2009 09:00 17,2 C 79 % 1011,5 hPa 0,0 l/m 19,9 km/h (4 Bft) W 0,00 h 0 W/m 13,5 C 12,7 C 19,9 km/h (4 Bft)
21.07.2009 10:00 19,9 C 69 % 1011,5 hPa 0,0 l/m 17,8 km/h (3 Bft) W 0,00 h 0 W/m 14,1 C 16,5 C 17,8 km/h (3 Bft)
21.07.2009 11:00 20,0 C 68 % 1011,5 hPa 0,0 l/m 17,6 km/h (3 Bft) W 0,00 h 0 W/m 13,9 C 16,7 C 17,6 km/h (3 Bft)
21.07.2009 12:00 21,3 C 60 % 1011,5 hPa 0,0 l/m 16,4 km/h (3 Bft) W 0,00 h 0 W/m 13,3 C 18,6 C 16,4 km/h (3 Bft)
21.07.2009 13:00 22,4 C 53 % 1010,8 hPa 0,0 l/m 17,0 km/h (3 Bft) W-NW 0,00 h 0 W/m 12,5 C 19,9 C 17,0 km/h (3 Bft)
21.07.2009 14:00 23,3 C 47 % 1010,5 hPa 0,0 l/m 15,5 km/h (3 Bft) W 0,00 h 0 W/m 11,2 C 21,1 C 15,5 km/h (3 Bft)
21.07.2009 15:00 22,7 C 47 % 1010,5 hPa 0,0 l/m 15,7 km/h (3 Bft) W 0,00 h 0 W/m 10,7 C 20,4 C 15,7 km/h (3 Bft)
21.07.2009 16:00 22,5 C 48 % 1009,7 hPa 0,0 l/m 15,0 km/h (3 Bft) W 0,00 h 0 W/m 10,9 C 20,3 C 15,0 km/h (3 Bft)
21.07.2009 17:00 22,5 C 51 % 1009,3 hPa 0,0 l/m 9,6 km/h (2 Bft) W 0,00 h 0 W/m 11,7 C 21,5 C 9,6 km/h (2 Bft)
21.07.2009 18:00 22,3 C 56 % 1008,3 hPa 0,0 l/m 3,4 km/h (1 Bft) S-SW 0,00 h 0 W/m 13,0 C 22,2 C 3,4 km/h (1 Bft)
21.07.2009 19:00 21,8 C 61 % 1007,5 hPa 0,0 l/m 2,8 km/h (1 Bft) O-SO 0,00 h 0 W/m 13,9 C 21,8 C 2,8 km/h (1 Bft)
21.07.2009 20:00 20,9 C 65 % 1007,5 hPa 0,0 l/m 3,0 km/h (1 Bft) O-SO 0,00 h 0 W/m 14,0 C 20,9 C 3,0 km/h (1 Bft)
21.07.2009 21:00 20,0 C 67 % 1006,8 hPa 0,0 l/m 7,4 km/h (2 Bft) O 0,00 h 0 W/m 13,7 C 19,3 C 7,4 km/h (2 Bft)
21.07.2009 22:00 19,4 C 73 % 1005,7 hPa 0,0 l/m 10,8 km/h (2 Bft) SO 0,00 h 0 W/m 14,5 C 17,8 C 10,8 km/h (2 Bft)
21.07.2009 23:00 19,1 C 75 % 1005,5 hPa 0,0 l/m 12,5 km/h (2 Bft) SO 0,00 h 0 W/m 14,5 C 17,0 C 12,5 km/h (2 Bft)
22.07.2009 00:00 18,5 C 76 % 1004,8 hPa 0,0 l/m 8,5 km/h (2 Bft) S-SO 0,00 h 0 W/m 14,2 C 17,2 C 8,5 km/h (2 Bft)
22.07.2009 01:00 18,3 C 76 % 1004,2 hPa 0,0 l/m 10,6 km/h (2 Bft) S 0,00 h 0 W/m 14,0 C 16,6 C 10,6 km/h (2 Bft)
22.07.2009 02:00 18,0 C 77 % 1003,5 hPa 0,0 l/m 8,5 km/h (2 Bft) S-SW 0,00 h 0 W/m 13,9 C 17,1 C 8,5 km/h (2 Bft)
22.07.2009 03:00 17,6 C 81 % 1003,2 hPa 0,0 l/m 9,1 km/h (2 Bft) S-SW 0,00 h 0 W/m 14,2 C 16,4 C 9,1 km/h (2 Bft)
22.07.2009 04:00 17,6 C 84 % 1002,5 hPa 0,0 l/m 10,0 km/h (2 Bft) SW 0,00 h 0 W/m 14,8 C 16,0 C 10,0 km/h (2 Bft)
22.07.2009 05:00 17,6 C 86 % 1002,3 hPa 0,0 l/m 10,2 km/h (2 Bft) S-SW 0,00 h 0 W/m 15,2 C 16,0 C 10,2 km/h (2 Bft)
22.07.2009 06:00 18,0 C 85 % 1002,1 hPa 0,0 l/m 6,8 km/h (2 Bft) S-SW 0,00 h 0 W/m 15,4 C 17,5 C 6,8 km/h (2 Bft)
22.07.2009 07:00 19,1 C 83 % 1002,5 hPa 0,0 l/m 13,0 km/h (3 Bft) W-SW 0,00 h 0 W/m 16,2 C 16,7 C 13,0 km/h (3 Bft)
22.07.2009 08:00 20,4 C 79 % 1002,5 hPa 0,0 l/m 11,1 km/h (2 Bft) W-SW 0,00 h 0 W/m 16,6 C 18,8 C 11,1 km/h (2 Bft)
22.07.2009 09:00 20,7 C 79 % 1002,5 hPa 0,0 l/m 8,4 km/h (2 Bft) S-SW 0,00 h 0 W/m 16,8 C 19,9 C 8,4 km/h (2 Bft)
22.07.2009 10:00 21,7 C 77 % 1002,0 hPa 0,0 l/m 12,4 km/h (2 Bft) S 0,00 h 0 W/m 17,5 C 19,9 C 12,4 km/h (2 Bft)
22.07.2009 11:00 21,2 C 78 % 1001,9 hPa 1,8 l/m 11,0 km/h (2 Bft) SW 0,00 h 0 W/m 17,3 C 19,8 C 11,0 km/h (2 Bft)
22.07.2009 12:00 20,0 C 87 % 1002,5 hPa 1,5 l/m 10,3 km/h (2 Bft) S 0,00 h 0 W/m 17,8 C 18,7 C 10,3 km/h (2 Bft)
22.07.2009 13:00 20,7 C 88 % 1003,4 hPa 0,0 l/m 22,2 km/h (4 Bft) W-SW 0,00 h 0 W/m 18,6 C 16,8 C 22,2 km/h (4 Bft)
22.07.2009 14:00 22,7 C 81 % 1003,5 hPa 0,0 l/m 22,3 km/h (4 Bft) W 0,00 h 0 W/m 19,3 C 19,3 C 22,3 km/h (4 Bft)
22.07.2009 15:00 23,6 C 72 % 1003,7 hPa 0,0 l/m 15,9 km/h (3 Bft) W-NW 0,00 h 0 W/m 18,3 C 21,5 C 15,9 km/h (3 Bft)
22.07.2009 16:00 23,8 C 66 % 1004,3 hPa 0,0 l/m 12,8 km/h (3 Bft) NW 0,00 h 0 W/m 17,1 C 22,3 C 12,8 km/h (3 Bft)
22.07.2009 17:00 23,5 C 67 % 1003,5 hPa 0,0 l/m 8,0 km/h (2 Bft) N 0,00 h 0 W/m 17,0 C 23,0 C 8,0 km/h (2 Bft)
22.07.2009 18:00 23,1 C 70 % 1003,5 hPa 0,0 l/m 4,7 km/h (1 Bft) N 0,00 h 0 W/m 17,2 C 22,9 C 4,7 km/h (1 Bft)
22.07.2009 19:00 22,5 C 72 % 1003,6 hPa 0,0 l/m 3,0 km/h (1 Bft) N 0,00 h 0 W/m 17,2 C 22,5 C 3,0 km/h (1 Bft)
22.07.2009 20:00 21,5 C 75 % 1004,5 hPa 0,0 l/m 0,3 km/h (0 Bft) NO 0,00 h 0 W/m 16,9 C 21,5 C 0,3 km/h (0 Bft)
22.07.2009 21:00 19,8 C 80 % 1003,8 hPa 0,0 l/m 0,7 km/h (0 Bft) N-NO 0,00 h 0 W/m 16,2 C 19,8 C 0,7 km/h (0 Bft)
22.07.2009 22:00 19,3 C 82 % 1003,5 hPa 0,0 l/m 0,4 km/h (0 Bft) N 0,00 h 0 W/m 16,2 C 19,3 C 0,4 km/h (0 Bft)
22.07.2009 23:00 19,2 C 83 % 1002,5 hPa 0,0 l/m 0,9 km/h (0 Bft) O-NO 0,00 h 0 W/m 16,2 C 19,1 C 0,9 km/h (0 Bft)
23.07.2009 00:00 19,1 C 86 % 1001,8 hPa 0,0 l/m 7,0 km/h (2 Bft) O-SO 0,00 h 0 W/m 16,6 C 18,6 C 7,0 km/h (2 Bft)
23.07.2009 01:00 18,9 C 87 % 1001,2 hPa 5,7 l/m 6,0 km/h (2 Bft) N-NO 0,00 h 0 W/m 16,7 C 18,4 C 6,0 km/h (2 Bft)
23.07.2009 02:00 18,6 C 90 % 1000,5 hPa 1,5 l/m 9,9 km/h (2 Bft) N-NO 0,00 h 0 W/m 16,9 C 17,2 C 9,9 km/h (2 Bft)
23.07.2009 03:00 18,5 C 92 % 999,6 hPa 14,4 l/m 14,5 km/h (3 Bft) N 0,00 h 0 W/m 17,2 C 15,7 C 14,5 km/h (3 Bft)
23.07.2009 04:00 18,0 C 94 % 999,3 hPa 11,4 l/m 12,8 km/h (3 Bft) N-NO 0,00 h 0 W/m 16,9 C 15,5 C 12,8 km/h (3 Bft)
23.07.2009 05:00 17,6 C 93 % 998,5 hPa 2,1 l/m 9,3 km/h (2 Bft) N-NO 0,00 h 0 W/m 16,5 C 16,1 C 9,3 km/h (2 Bft)
23.07.2009 06:00 18,0 C 93 % 998,4 hPa 0,0 l/m 3,6 km/h (1 Bft) O-NO 0,00 h 0 W/m 16,9 C 17,8 C 3,6 km/h (1 Bft)
23.07.2009 07:00 18,8 C 92 % 998,5 hPa 0,0 l/m 0,2 km/h (0 Bft) W-SW 0,00 h 0 W/m 17,5 C 18,8 C 0,2 km/h (0 Bft)
23.07.2009 08:00 19,1 C 90 % 998,7 hPa 0,0 l/m 6,6 km/h (2 Bft) W-SW 0,00 h 0 W/m 17,5 C 18,7 C 6,6 km/h (2 Bft)
23.07.2009 09:00 18,0 C 91 % 999,8 hPa 0,0 l/m 20,5 km/h (4 Bft) NW 0,00 h 0 W/m 16,5 C 13,6 C 20,5 km/h (4 Bft)
23.07.2009 10:00 18,3 C 89 % 1000,5 hPa 0,0 l/m 12,4 km/h (2 Bft) NW 0,00 h 0 W/m 16,5 C 15,9 C 12,4 km/h (2 Bft)
23.07.2009 11:00 19,6 C 80 % 1000,5 hPa 0,0 l/m 11,2 km/h (2 Bft) W 0,00 h 0 W/m 16,1 C 17,8 C 11,2 km/h (2 Bft)
23.07.2009 12:00 19,1 C 79 % 1001,2 hPa 0,0 l/m 13,1 km/h (3 Bft) W-SW 0,00 h 0 W/m 15,4 C 16,7 C 13,1 km/h (3 Bft)
23.07.2009 13:00 19,3 C 77 % 1000,8 hPa 0,0 l/m 8,3 km/h (2 Bft) W-SW 0,00 h 0 W/m 15,1 C 18,4 C 8,3 km/h (2 Bft)
23.07.2009 14:00 19,5 C 77 % 1000,5 hPa 0,0 l/m 11,2 km/h (2 Bft) NW 0,00 h 0 W/m 15,2 C 17,7 C 11,2 km/h (2 Bft)
23.07.2009 15:00 19,1 C 82 % 1001,4 hPa 0,3 l/m 13,1 km/h (3 Bft) NW 0,00 h 0 W/m 15,8 C 16,7 C 13,1 km/h (3 Bft)
23.07.2009 16:00 18,7 C 84 % 1001,7 hPa 0,3 l/m 10,8 km/h (2 Bft) NW 0,00 h 0 W/m 15,9 C 17,0 C 10,8 km/h (2 Bft)
23.07.2009 17:00 19,5 C 77 % 1002,1 hPa 0,0 l/m 16,6 km/h (3 Bft) W-NW 0,00 h 0 W/m 15,4 C 16,4 C 16,6 km/h (3 Bft)
23.07.2009 18:00 19,7 C 75 % 1002,4 hPa 0,0 l/m 16,6 km/h (3 Bft) NW 0,00 h 0 W/m 15,1 C 16,6 C 16,6 km/h (3 Bft)
23.07.2009 19:00 19,0 C 79 % 1003,0 hPa 0,0 l/m 13,6 km/h (3 Bft) W-NW 0,00 h 0 W/m 15,1 C 16,4 C 13,6 km/h (3 Bft)
23.07.2009 20:00 18,1 C 84 % 1003,5 hPa 0,6 l/m 13,3 km/h (3 Bft) W-NW 0,00 h 0 W/m 15,3 C 15,6 C 13,3 km/h (3 Bft)
23.07.2009 21:00 17,9 C 83 % 1003,8 hPa 0,0 l/m 16,0 km/h (3 Bft) W-NW 0,00 h 0 W/m 15,0 C 14,5 C 16,0 km/h (3 Bft)
23.07.2009 22:00 17,5 C 83 % 1004,5 hPa 0,0 l/m 11,5 km/h (2 Bft) W-NW 0,00 h 0 W/m 14,6 C 15,4 C 11,5 km/h (2 Bft)
23.07.2009 23:00 16,9 C 83 % 1005,3 hPa 0,0 l/m 9,6 km/h (2 Bft) W-NW 0,00 h 0 W/m 14,0 C 15,5 C 9,6 km/h (2 Bft)
24.07.2009 00:00 16,9 C 83 % 1005,5 hPa 0,0 l/m 11,8 km/h (2 Bft) W-NW 0,00 h 0 W/m 14,0 C 14,6 C 11,8 km/h (2 Bft)
24.07.2009 01:00 17,1 C 83 % 1005,5 hPa 0,0 l/m 11,2 km/h (2 Bft) W-NW 0,00 h 0 W/m 14,2 C 15,0 C 11,2 km/h (2 Bft)
24.07.2009 02:00 16,8 C 84 % 1006,5 hPa 0,0 l/m 6,7 km/h (2 Bft) W-SW 0,00 h 0 W/m 14,2 C 16,3 C 6,7 km/h (2 Bft)
24.07.2009 03:00 16,3 C 85 % 1006,5 hPa 0,0 l/m 3,0 km/h (1 Bft) W-SW 0,00 h 0 W/m 13,7 C 16,3 C 3,0 km/h (1 Bft)
24.07.2009 04:00 16,0 C 85 % 1006,5 hPa 0,0 l/m 5,1 km/h (1 Bft) W-SW 0,00 h 0 W/m 13,5 C 16,0 C 5,1 km/h (1 Bft)
24.07.2009 05:00 16,2 C 85 % 1006,5 hPa 0,0 l/m 5,0 km/h (1 Bft) S-SW 0,00 h 0 W/m 13,7 C 16,2 C 5,0 km/h (1 Bft)
24.07.2009 06:00 16,2 C 86 % 1006,5 hPa 0,0 l/m 6,7 km/h (2 Bft) S-SW 0,00 h 0 W/m 13,8 C 15,6 C 6,7 km/h (2 Bft)
24.07.2009 07:00 16,6 C 87 % 1006,5 hPa 0,0 l/m 16,3 km/h (3 Bft) W-SW 0,00 h 0 W/m 14,4 C 13,0 C 16,3 km/h (3 Bft)
24.07.2009 08:00 17,1 C 84 % 1006,5 hPa 0,0 l/m 24,7 km/h (4 Bft) W-SW 0,00 h 0 W/m 14,4 C 11,5 C 24,7 km/h (4 Bft)
24.07.2009 09:00 17,8 C 83 % 1006,5 hPa 0,0 l/m 29,1 km/h (5 Bft) W 0,00 h 0 W/m 14,8 C 11,8 C 29,1 km/h (5 Bft)
24.07.2009 10:00 19,4 C 77 % 1007,3 hPa 0,0 l/m 26,7 km/h (4 Bft) W 0,00 h 0 W/m 15,2 C 14,3 C 26,7 km/h (4 Bft)
24.07.2009 11:00 19,7 C 75 % 1007,5 hPa 0,0 l/m 26,2 km/h (4 Bft) W 0,00 h 0 W/m 15,0 C 14,8 C 26,2 km/h (4 Bft)
24.07.2009 12:00 20,8 C 69 % 1007,5 hPa 0,0 l/m 24,9 km/h (4 Bft) W-SW 0,00 h 0 W/m 14,8 C 16,5 C 24,9 km/h (4 Bft)
24.07.2009 13:00 18,7 C 75 % 1007,8 hPa 2,7 l/m 27,4 km/h (5 Bft) W-SW 0,00 h 0 W/m 14,2 C 13,3 C 27,4 km/h (5 Bft)
24.07.2009 14:00 16,8 C 79 % 1008,5 hPa 0,0 l/m 14,6 km/h (3 Bft) W-SW 0,00 h 0 W/m 13,1 C 13,5 C 14,6 km/h (3 Bft)
24.07.2009 15:00 16,5 C 86 % 1008,5 hPa 1,2 l/m 24,2 km/h (4 Bft) W-SW 0,00 h 0 W/m 14,1 C 10,8 C 24,2 km/h (4 Bft)
24.07.2009 16:00 16,9 C 87 % 1008,5 hPa 0,3 l/m 16,6 km/h (3 Bft) W-SW 0,00 h 0 W/m 14,7 C 13,1 C 16,6 km/h (3 Bft)
24.07.2009 17:00 18,1 C 79 % 1008,5 hPa 0,0 l/m 19,3 km/h (3 Bft) W 0,00 h 0 W/m 14,4 C 13,9 C 19,3 km/h (3 Bft)
24.07.2009 18:00 18,4 C 73 % 1008,7 hPa 0,0 l/m 20,2 km/h (4 Bft) W 0,00 h 0 W/m 13,5 C 14,2 C 20,2 km/h (4 Bft)
24.07.2009 19:00 18,5 C 71 % 1009,5 hPa 0,0 l/m 18,4 km/h (3 Bft) W 0,00 h 0 W/m 13,2 C 14,6 C 18,4 km/h (3 Bft)
24.07.2009 20:00 17,6 C 73 % 1009,5 hPa 0,0 l/m 20,8 km/h (4 Bft) W 0,00 h 0 W/m 12,6 C 13,0 C 20,8 km/h (4 Bft)
24.07.2009 21:00 16,3 C 80 % 1009,5 hPa 0,0 l/m 16,4 km/h (3 Bft) W-SW 0,00 h 0 W/m 12,8 C 12,3 C 16,4 km/h (3 Bft)
24.07.2009 22:00 15,2 C 84 % 1009,5 hPa 0,0 l/m 13,1 km/h (3 Bft) W-SW 0,00 h 0 W/m 12,6 C 12,2 C 13,1 km/h (3 Bft)
24.07.2009 23:00 15,0 C 87 % 1009,5 hPa 0,0 l/m 14,0 km/h (3 Bft) W-SW 0,00 h 0 W/m 12,8 C 11,6 C 14,0 km/h (3 Bft)
25.07.2009 00:00 14,9 C 90 % 1009,5 hPa 0,0 l/m 13,5 km/h (3 Bft) W-SW 0,00 h 0 W/m 13,3 C 11,7 C 13,5 km/h (3 Bft)
25.07.2009 01:00 15,0 C 91 % 1009,5 hPa 0,0 l/m 12,5 km/h (2 Bft) W-SW 0,00 h 0 W/m 13,6 C 12,1 C 12,5 km/h (2 Bft)
25.07.2009 02:00 15,0 C 92 % 1009,5 hPa 0,0 l/m 13,5 km/h (3 Bft) W-SW 0,00 h 0 W/m 13,7 C 11,9 C 13,5 km/h (3 Bft)
25.07.2009 03:00 15,1 C 91 % 1009,9 hPa 0,0 l/m 14,7 km/h (3 Bft) W-SW 0,00 h 0 W/m 13,6 C 11,5 C 14,7 km/h (3 Bft)
25.07.2009 04:00 15,1 C 88 % 1010,1 hPa 0,0 l/m 20,4 km/h (4 Bft) W 0,00 h 0 W/m 13,2 C 9,9 C 20,4 km/h (4 Bft)
25.07.2009 05:00 14,9 C 82 % 1010,2 hPa 0,0 l/m 20,0 km/h (4 Bft) W 0,00 h 0 W/m 12,0 C 9,7 C 20,0 km/h (4 Bft)
25.07.2009 06:00 15,6 C 81 % 1010,5 hPa 0,0 l/m 18,4 km/h (3 Bft) W-NW 0,00 h 0 W/m 12,3 C 11,1 C 18,4 km/h (3 Bft)
25.07.2009 07:00 15,1 C 84 % 1011,1 hPa 1,5 l/m 15,4 km/h (3 Bft) W-NW 0,00 h 0 W/m 12,4 C 11,2 C 15,4 km/h (3 Bft)
25.07.2009 08:00 14,5 C 88 % 1011,5 hPa 3,6 l/m 17,8 km/h (3 Bft) W 0,00 h 0 W/m 12,5 C 9,8 C 17,8 km/h (3 Bft)
25.07.2009 09:00 14,7 C 90 % 1011,5 hPa 0,0 l/m 22,7 km/h (4 Bft) W-SW 0,00 h 0 W/m 13,0 C 8,7 C 22,7 km/h (4 Bft)
25.07.2009 10:00 15,9 C 89 % 1011,5 hPa 0,3 l/m 24,0 km/h (4 Bft) W 0,00 h 0 W/m 14,1 C 10,1 C 24,0 km/h (4 Bft)
25.07.2009 11:00 16,0 C 91 % 1012,4 hPa 1,8 l/m 15,7 km/h (3 Bft) W-SW 0,00 h 0 W/m 14,6 C 12,3 C 15,7 km/h (3 Bft)
25.07.2009 12:00 18,8 C 79 % 1012,5 hPa 0,0 l/m 27,4 km/h (5 Bft) NW 0,00 h 0 W/m 15,1 C 13,5 C 27,4 km/h (5 Bft)
25.07.2009 13:00 19,3 C 73 % 1013,1 hPa 0,0 l/m 30,6 km/h (5 Bft) NW 0,00 h 0 W/m 14,4 C 13,7 C 30,6 km/h (5 Bft)
25.07.2009 14:00 20,4 C 70 % 1013,5 hPa 0,0 l/m 30,5 km/h (5 Bft) NW 0,00 h 0 W/m 14,6 C 15,2 C 30,5 km/h (5 Bft)
25.07.2009 15:00 19,0 C 77 % 1014,2 hPa 0,9 l/m 33,5 km/h (5 Bft) NW 0,00 h 0 W/m 14,9 C 12,9 C 33,5 km/h (5 Bft)
25.07.2009 16:00 18,0 C 80 % 1015,1 hPa 0,0 l/m 35,5 km/h (5 Bft) NW 0,00 h 0 W/m 14,5 C 11,2 C 35,5 km/h (5 Bft)
25.07.2009 17:00 17,8 C 82 % 1015,7 hPa 0,3 l/m 36,5 km/h (5 Bft) NW 0,00 h 0 W/m 14,6 C 10,9 C 36,5 km/h (5 Bft)
25.07.2009 18:00 17,8 C 78 % 1016,5 hPa 0,0 l/m 33,1 km/h (5 Bft) NW 0,00 h 0 W/m 13,9 C 11,2 C 33,1 km/h (5 Bft)
25.07.2009 19:00 16,8 C 77 % 1017,4 hPa 0,0 l/m 32,4 km/h (5 Bft) N-NW 0,00 h 0 W/m 12,8 C 9,9 C 32,4 km/h (5 Bft)
25.07.2009 20:00 16,5 C 71 % 1017,6 hPa 0,0 l/m 30,3 km/h (5 Bft) N-NW 0,00 h 0 W/m 11,3 C 9,8 C 30,3 km/h (5 Bft)
25.07.2009 21:00 15,6 C 74 % 1018,5 hPa 0,0 l/m 23,5 km/h (4 Bft) NW 0,00 h 0 W/m 11,0 C 9,9 C 23,5 km/h (4 Bft)
25.07.2009 22:00 15,1 C 75 % 1018,5 hPa 0,0 l/m 19,7 km/h (3 Bft) NW 0,00 h 0 W/m 10,7 C 10,0 C 19,7 km/h (3 Bft)
25.07.2009 23:00 14,9 C 75 % 1018,5 hPa 0,0 l/m 16,5 km/h (3 Bft) NW 0,00 h 0 W/m 10,6 C 10,6 C 16,5 km/h (3 Bft)
26.07.2009 00:00 14,6 C 76 % 1018,5 hPa 0,0 l/m 15,2 km/h (3 Bft) NW 0,00 h 0 W/m 10,5 C 10,7 C 15,2 km/h (3 Bft)
26.07.2009 01:00 14,7 C 77 % 1018,5 hPa 0,0 l/m 13,3 km/h (3 Bft) NW 0,00 h 0 W/m 10,6 C 11,4 C 13,3 km/h (3 Bft)
26.07.2009 02:00 15,2 C 75 % 1018,5 hPa 0,3 l/m 16,8 km/h (3 Bft) NW 0,00 h 0 W/m 10,9 C 11,1 C 16,8 km/h (3 Bft)
26.07.2009 03:00 14,9 C 79 % 1018,5 hPa 0,0 l/m 14,5 km/h (3 Bft) NW 0,00 h 0 W/m 11,4 C 11,4 C 14,5 km/h (3 Bft)
26.07.2009 04:00 15,2 C 78 % 1018,5 hPa 0,0 l/m 17,1 km/h (3 Bft) NW 0,00 h 0 W/m 11,4 C 10,9 C 17,1 km/h (3 Bft)
26.07.2009 05:00 15,1 C 76 % 1018,5 hPa 0,0 l/m 17,6 km/h (3 Bft) NW 0,00 h 0 W/m 10,8 C 10,5 C 17,6 km/h (3 Bft)
26.07.2009 06:00 15,4 C 76 % 1018,5 hPa 0,0 l/m 20,4 km/h (4 Bft) NW 0,00 h 0 W/m 11,2 C 10,4 C 20,4 km/h (4 Bft)
26.07.2009 07:00 15,6 C 73 % 1018,5 hPa 0,0 l/m 22,2 km/h (4 Bft) NW 0,00 h 0 W/m 10,8 C 10,0 C 22,2 km/h (4 Bft)
26.07.2009 08:00 16,7 C 69 % 1018,5 hPa 0,0 l/m 18,7 km/h (3 Bft) NW 0,00 h 0 W/m 10,9 C 12,3 C 18,7 km/h (3 Bft)
26.07.2009 09:00 17,1 C 63 % 1018,5 hPa 0,0 l/m 19,9 km/h (4 Bft) NW 0,00 h 0 W/m 10,0 C 12,5 C 19,9 km/h (4 Bft)
26.07.2009 10:00 20,4 C 57 % 1018,5 hPa 0,0 l/m 16,6 km/h (3 Bft) NW 0,00 h 0 W/m 11,7 C 17,5 C 16,6 km/h (3 Bft)
26.07.2009 11:00 19,9 C 61 % 1018,5 hPa 0,0 l/m 18,4 km/h (3 Bft) W 0,00 h 0 W/m 12,3 C 16,5 C 18,4 km/h (3 Bft)
26.07.2009 12:00 20,3 C 61 % 1018,5 hPa 0,0 l/m 17,0 km/h (3 Bft) W 0,00 h 0 W/m 12,6 C 17,2 C 17,0 km/h (3 Bft)
26.07.2009 13:00 21,8 C 60 % 1017,8 hPa 0,0 l/m 14,8 km/h (3 Bft) W-NW 0,00 h 0 W/m 13,6 C 19,5 C 14,8 km/h (3 Bft)
26.07.2009 14:00 22,6 C 60 % 1017,5 hPa 0,0 l/m 11,9 km/h (2 Bft) NW 0,00 h 0 W/m 14,3 C 21,1 C 11,9 km/h (2 Bft)
26.07.2009 15:00 22,8 C 60 % 1017,5 hPa 0,0 l/m 10,7 km/h (2 Bft) NW 0,00 h 0 W/m 14,5 C 21,6 C 10,7 km/h (2 Bft)
26.07.2009 16:00 22,3 C 61 % 1017,0 hPa 0,0 l/m 6,8 km/h (2 Bft) NW 0,00 h 0 W/m 14,3 C 21,9 C 6,8 km/h (2 Bft)
26.07.2009 17:00 21,9 C 62 % 1016,5 hPa 0,0 l/m 3,4 km/h (1 Bft) NW 0,00 h 0 W/m 14,4 C 21,9 C 3,4 km/h (1 Bft)
26.07.2009 18:00 21,1 C 65 % 1016,5 hPa 0,0 l/m 6,5 km/h (2 Bft) NW 0,00 h 0 W/m 14,3 C 20,8 C 6,5 km/h (2 Bft)
26.07.2009 19:00 19,9 C 70 % 1015,8 hPa 0,0 l/m 6,1 km/h (2 Bft) W 0,00 h 0 W/m 14,2 C 19,7 C 6,1 km/h (2 Bft)
26.07.2009 20:00 19,4 C 73 % 1015,5 hPa 0,0 l/m 4,3 km/h (1 Bft) W-SW 0,00 h 0 W/m 14,4 C 19,4 C 4,3 km/h (1 Bft)
26.07.2009 21:00 19,3 C 74 % 1015,3 hPa 0,0 l/m 0,2 km/h (0 Bft) W-SW 0,00 h 0 W/m 14,5 C 19,3 C 0,2 km/h (0 Bft)
26.07.2009 22:00 19,0 C 75 % 1014,5 hPa 0,0 l/m 0,5 km/h (0 Bft) S-SO 0,00 h 0 W/m 14,5 C 19,0 C 0,5 km/h (0 Bft)
26.07.2009 23:00 18,5 C 77 % 1014,5 hPa 0,0 l/m 3,8 km/h (1 Bft) S-SO 0,00 h 0 W/m 14,4 C 18,5 C 3,8 km/h (1 Bft)
Min-Datum _ 20.07.09 21.07.09 23.07.09 - 21.07.09 - - - 26.07.09 20.07.09 21.07.09
_ Min-Zeit 04:35 14:36 06:50 - 18:45 - - - 09:35 06:10 18:45
Minimum _ 12,4 C 44 % 997,5 hPa - 0,0 km/h (0 Bft) - - - 9,5 C 6,7 C 0,0 km/h (0 Bft)
Max-Datum _ 22.07.09 23.07.09 25.07.09 23.07.09 25.07.09 - 20.07.09 20.07.09 22.07.09 22.07.09 25.07.09
_ Max-Zeit 15:46 04:30 20:55 03:51 17:05 - 00:00 00:00 14:35 17:30 17:05
Maximum _ 24,0 C 94 % 1018,5 hPa 14,4 l/m 45,9 km/h
NW (6 Bft)
- 0,00 h 0 W/m 19,8 C 23,6 C 45,9 km/h
NW (6 Bft)
Durchschnitt _ 18,0 C 78 % 1008,9 hPa #52,8 l/m 15,9 km/h (3 Bft) NW #0 min. 0 W/m 13,9 C 15,0 C 15,9 km/h (3 Bft)
copyright by Holger Just